createdAt,value
2022-10-28T00:00:38.060Z,62.74
2022-10-28T00:03:04.781Z,62.05
2022-10-28T00:05:34.428Z,61.56
2022-10-28T00:08:01.057Z,62.81
2022-10-28T00:10:27.664Z,61.97
2022-10-28T00:12:54.332Z,62.28
2022-10-28T00:15:20.899Z,62.71
2022-10-28T00:17:47.513Z,63.79
2022-10-28T00:20:15.795Z,62.65
2022-10-28T00:22:43.459Z,62.47
2022-10-28T00:25:10.786Z,61.29
2022-10-28T00:27:37.458Z,61.43
2022-10-28T00:30:04.938Z,61.90
2022-10-28T00:32:31.934Z,62.72
2022-10-28T00:34:58.759Z,61.53
2022-10-28T00:37:25.459Z,62.99
2022-10-28T00:39:52.116Z,63.39
2022-10-28T00:42:21.818Z,63.67
2022-10-28T00:44:48.570Z,64.18
2022-10-28T00:47:17.871Z,63.99
2022-10-28T00:49:47.930Z,63.54
2022-10-28T00:52:19.285Z,63.33
2022-10-28T00:54:46.706Z,63.22
2022-10-28T00:57:18.477Z,63.15
2022-10-28T00:59:49.335Z,63.46
2022-10-28T01:02:16.763Z,65.29
2022-10-28T01:04:44.104Z,63.25
2022-10-28T01:07:11.328Z,63.38
2022-10-28T01:09:40.373Z,65.09
2022-10-28T01:12:32.059Z,63.85
2022-10-28T01:15:04.557Z,63.43
2022-10-28T01:17:53.274Z,63.51
2022-10-28T01:20:40.997Z,63.44
2022-10-28T01:23:17.879Z,64.30
2022-10-28T01:25:59.023Z,63.48
2022-10-28T01:28:45.875Z,63.78
2022-10-28T01:31:37.483Z,63.14
2022-10-28T01:34:22.035Z,63.79
2022-10-28T01:37:10.631Z,64.81
2022-10-28T01:40:08.360Z,65.36
2022-10-28T01:42:40.511Z,64.09
2022-10-28T01:45:24.543Z,64.30
2022-10-28T01:48:02.648Z,65.45
2022-10-28T01:50:35.010Z,63.59
2022-10-28T01:53:07.305Z,63.98
2022-10-28T01:55:38.715Z,63.75
2022-10-28T01:58:07.255Z,64.15
2022-10-28T02:00:36.111Z,63.71
2022-10-28T02:03:03.553Z,63.50
2022-10-28T02:05:42.257Z,64.68
2022-10-28T02:08:23.934Z,63.49
2022-10-28T02:11:25.668Z,63.94
2022-10-28T02:14:34.030Z,63.37
2022-10-28T02:17:36.529Z,63.17
2022-10-28T02:20:38.476Z,65.54
2022-10-28T02:23:25.107Z,66.19
2022-10-28T02:26:13.703Z,65.03
2022-10-28T02:29:00.504Z,65.10
2022-10-28T02:31:40.295Z,64.67
2022-10-28T02:34:13.362Z,64.81
2022-10-28T02:36:45.217Z,65.02
2022-10-28T02:39:12.115Z,64.66
2022-10-28T02:41:41.829Z,64.24
2022-10-28T02:44:13.954Z,65.13
2022-10-28T02:46:45.455Z,66.34
2022-10-28T02:49:14.655Z,66.07
2022-10-28T02:51:48.616Z,66.60
2022-10-28T02:54:31.026Z,65.81
2022-10-28T02:57:04.621Z,65.99
2022-10-28T02:59:31.284Z,65.99
2022-10-28T03:01:58.200Z,66.46
2022-10-28T03:04:24.990Z,66.37
2022-10-28T03:06:51.594Z,65.51
2022-10-28T03:09:18.231Z,65.84
2022-10-28T03:11:44.809Z,66.89
2022-10-28T03:14:14.578Z,65.81
2022-10-28T03:16:48.065Z,64.10
2022-10-28T03:19:14.726Z,64.31
2022-10-28T03:21:41.288Z,66.24
2022-10-28T03:24:07.954Z,66.95
2022-10-28T03:26:34.622Z,65.55
2022-10-28T03:29:01.262Z,65.06
2022-10-28T03:31:27.913Z,65.22
2022-10-28T03:33:54.723Z,65.40
2022-10-28T03:36:21.384Z,64.36
2022-10-28T03:38:48.158Z,65.09
2022-10-28T03:41:14.758Z,64.52
2022-10-28T03:43:41.395Z,64.90
2022-10-28T03:46:07.962Z,64.84
2022-10-28T03:48:34.681Z,65.56
2022-10-28T03:51:01.279Z,64.83
2022-10-28T03:53:31.191Z,64.38
2022-10-28T03:56:00.458Z,64.94
2022-10-28T03:58:27.663Z,66.03
2022-10-28T04:00:55.607Z,64.85
2022-10-28T04:03:23.745Z,67.11
2022-10-28T04:05:50.862Z,66.77
2022-10-28T04:08:18.571Z,66.07
2022-10-28T04:10:47.503Z,65.08
2022-10-28T04:13:15.118Z,65.18
2022-10-28T04:15:41.710Z,65.09
2022-10-28T04:18:08.899Z,65.57
2022-10-28T04:20:35.692Z,65.02
2022-10-28T04:23:02.596Z,64.73
2022-10-28T04:25:29.586Z,63.54
2022-10-28T04:27:56.458Z,63.42
2022-10-28T04:30:23.473Z,62.95
2022-10-28T04:32:50.094Z,63.26
2022-10-28T04:35:16.871Z,63.40
2022-10-28T04:37:43.434Z,62.98
2022-10-28T04:40:10.499Z,62.52
2022-10-28T04:42:37.074Z,63.02
2022-10-28T04:45:04.143Z,63.31
2022-10-28T04:47:30.750Z,63.30
2022-10-28T04:49:57.372Z,63.15
2022-10-28T04:52:23.953Z,63.59
2022-10-28T04:54:50.677Z,63.88
2022-10-28T04:57:17.261Z,64.01
2022-10-28T04:59:43.981Z,63.95
2022-10-28T05:02:10.658Z,63.74
2022-10-28T05:04:37.435Z,64.22
2022-10-28T05:07:04.079Z,64.15
2022-10-28T05:09:30.707Z,64.65
2022-10-28T05:11:57.258Z,64.28
2022-10-28T05:14:23.927Z,64.85
2022-10-28T05:16:50.606Z,64.61
2022-10-28T05:19:17.288Z,65.02
2022-10-28T05:21:43.881Z,63.75
2022-10-28T05:24:10.643Z,65.26
2022-10-28T05:26:37.214Z,65.37
2022-10-28T05:29:03.871Z,64.53
2022-10-28T05:31:30.514Z,66.24
2022-10-28T05:33:57.156Z,65.97
2022-10-28T05:36:23.746Z,64.93
2022-10-28T05:38:50.430Z,64.64
2022-10-28T05:41:17.021Z,66.23
2022-10-28T05:43:43.633Z,65.67
2022-10-28T05:46:10.368Z,64.41
2022-10-28T05:48:37.011Z,64.13
2022-10-28T05:51:03.676Z,65.31
2022-10-28T05:53:30.361Z,64.84
2022-10-28T05:55:56.930Z,65.42
2022-10-28T05:58:23.554Z,66.47
2022-10-28T06:00:50.138Z,65.86
2022-10-28T06:03:16.892Z,66.05
2022-10-28T06:05:45.825Z,66.08
2022-10-28T06:08:13.417Z,67.13
2022-10-28T06:10:40.503Z,66.13
2022-10-28T06:13:07.366Z,66.99
2022-10-28T06:15:33.968Z,67.06
2022-10-28T06:18:00.642Z,66.75
2022-10-28T06:20:27.263Z,66.58
2022-10-28T06:22:55.598Z,67.04
2022-10-28T06:25:24.145Z,67.94
2022-10-28T06:27:55.850Z,67.50
2022-10-28T06:30:24.384Z,66.69
2022-10-28T06:32:51.237Z,65.97
2022-10-28T06:35:18.306Z,65.15
2022-10-28T06:37:44.911Z,66.01
2022-10-28T06:40:11.599Z,66.04
2022-10-28T06:42:38.217Z,66.26
2022-10-28T06:45:05.549Z,66.68
2022-10-28T06:47:36.572Z,65.90
2022-10-28T06:50:06.868Z,66.78
2022-10-28T06:52:33.557Z,66.45
2022-10-28T06:55:00.270Z,66.21
2022-10-28T06:57:29.176Z,65.92
2022-10-28T06:59:56.085Z,66.45
2022-10-28T07:02:22.720Z,66.77
2022-10-28T07:04:49.470Z,67.08
2022-10-28T07:07:16.155Z,66.48
2022-10-28T07:09:45.014Z,67.32
2022-10-28T07:12:11.761Z,67.59
2022-10-28T07:14:38.477Z,65.17
2022-10-28T07:17:05.053Z,60.90
2022-10-28T07:19:31.734Z,57.74
2022-10-28T07:21:58.296Z,55.91
2022-10-28T07:24:24.986Z,52.93
2022-10-28T07:26:53.080Z,50.53
2022-10-28T07:29:22.345Z,49.78
2022-10-28T07:31:48.924Z,51.38
2022-10-28T07:34:15.977Z,53.45
2022-10-28T07:36:42.598Z,54.78
2022-10-28T07:39:09.910Z,57.56
2022-10-28T07:41:37.273Z,55.50
2022-10-28T07:44:03.973Z,51.62
2022-10-28T07:46:31.011Z,48.43
2022-10-28T07:48:57.888Z,46.66
2022-10-28T07:51:24.467Z,45.93
2022-10-28T07:53:51.095Z,45.35
2022-10-28T07:56:18.272Z,46.92
2022-10-28T07:58:45.554Z,49.16
2022-10-28T08:01:15.654Z,50.96
2022-10-28T08:03:42.758Z,52.28
2022-10-28T08:06:12.120Z,53.91
2022-10-28T08:08:39.766Z,54.27
2022-10-28T08:11:14.572Z,54.68
2022-10-28T08:13:41.794Z,55.11
2022-10-28T08:16:08.831Z,54.94
2022-10-28T08:18:36.433Z,55.77
2022-10-28T08:21:04.776Z,57.49
2022-10-28T08:23:31.774Z,61.38
2022-10-28T08:25:58.685Z,60.95
2022-10-28T08:28:25.453Z,61.33
2022-10-28T08:31:04.322Z,61.82
2022-10-28T08:33:39.174Z,61.52
2022-10-28T08:36:07.682Z,62.82
2022-10-28T08:38:34.303Z,62.87
2022-10-28T08:41:25.714Z,62.90
2022-10-28T08:44:07.941Z,63.52
2022-10-28T08:46:37.530Z,62.95
2022-10-28T08:49:12.531Z,62.23
2022-10-28T08:51:54.827Z,61.85
2022-10-28T08:54:37.952Z,61.21
2022-10-28T08:57:11.727Z,61.58
2022-10-28T08:59:42.111Z,61.84
2022-10-28T09:02:11.768Z,63.38
2022-10-28T09:04:44.139Z,59.72
2022-10-28T09:07:24.794Z,60.58
2022-10-28T09:09:53.014Z,60.17
2022-10-28T09:12:26.633Z,60.62
2022-10-28T09:15:20.571Z,59.78
2022-10-28T09:17:47.176Z,58.92
2022-10-28T09:20:53.014Z,60.04
2022-10-28T09:23:32.369Z,60.20
2022-10-28T09:26:40.643Z,60.14
2022-10-28T09:29:37.221Z,60.56
2022-10-28T09:32:21.587Z,60.41
2022-10-28T09:35:19.712Z,59.73
2022-10-28T09:37:55.515Z,60.23
2022-10-28T09:40:29.736Z,57.01
2022-10-28T09:43:18.170Z,55.86
2022-10-28T09:45:48.237Z,55.78
2022-10-28T09:48:21.755Z,54.77
2022-10-28T09:50:52.377Z,53.59
2022-10-28T09:53:44.017Z,51.89
2022-10-28T09:56:11.008Z,53.17
2022-10-28T09:58:43.920Z,50.42
2022-10-28T10:01:10.768Z,49.60
2022-10-28T10:03:40.021Z,48.71
2022-10-28T10:06:14.104Z,48.02
2022-10-28T10:08:41.801Z,48.06
2022-10-28T10:11:32.406Z,47.10
2022-10-28T10:14:03.959Z,47.94
2022-10-28T10:16:33.555Z,46.55
2022-10-28T10:19:02.874Z,46.85
2022-10-28T10:21:44.913Z,45.45
2022-10-28T10:24:32.942Z,45.19
2022-10-28T10:27:14.501Z,44.56
2022-10-28T10:29:59.169Z,44.38
2022-10-28T10:32:31.958Z,42.51
2022-10-28T10:35:27.444Z,42.88
2022-10-28T10:37:57.066Z,41.78
2022-10-28T10:40:25.719Z,40.00
2022-10-28T10:43:12.951Z,41.06
2022-10-28T10:45:40.685Z,40.47
2022-10-28T10:48:14.584Z,39.81
2022-10-28T10:50:46.872Z,39.91
2022-10-28T10:53:27.256Z,38.28
2022-10-28T10:55:57.192Z,39.66
2022-10-28T10:58:27.024Z,39.26
2022-10-28T11:00:56.240Z,38.95
2022-10-28T11:03:30.325Z,38.91
2022-10-28T11:06:21.906Z,38.93
2022-10-28T11:08:47.454Z,39.13
2022-10-28T11:11:21.439Z,38.44
2022-10-28T11:14:01.861Z,38.94
2022-10-28T11:16:28.479Z,38.87
2022-10-28T11:18:55.058Z,37.99
2022-10-28T11:21:44.719Z,37.58
2022-10-28T11:24:32.626Z,38.05
2022-10-28T11:27:09.060Z,37.88
2022-10-28T11:29:35.883Z,36.93
2022-10-28T11:32:28.579Z,36.55
2022-10-28T11:34:59.958Z,36.74
2022-10-28T11:37:35.735Z,36.57
2022-10-28T11:40:25.466Z,37.24
2022-10-28T11:43:27.340Z,37.67
2022-10-28T11:46:09.619Z,37.17
2022-10-28T11:49:08.806Z,38.01
2022-10-28T11:51:35.408Z,38.81
2022-10-28T11:54:07.651Z,38.43
2022-10-28T11:56:41.156Z,37.38
2022-10-28T11:59:29.001Z,35.88
2022-10-28T12:02:30.434Z,33.68
2022-10-28T12:05:02.894Z,34.70
2022-10-28T12:07:56.244Z,35.29
2022-10-28T12:11:08.313Z,35.86
2022-10-28T12:13:41.347Z,35.19
2022-10-28T12:16:28.282Z,36.01
2022-10-28T12:19:00.614Z,37.13
2022-10-28T12:24:05.512Z,38.15
2022-10-28T12:26:43.030Z,38.84
2022-10-28T12:29:17.739Z,38.05
2022-10-28T12:31:50.113Z,38.02
2022-10-28T12:34:24.859Z,38.43
2022-10-28T12:37:02.436Z,38.36
2022-10-28T12:39:35.324Z,37.94
2022-10-28T12:42:29.337Z,38.49
2022-10-28T12:45:00.620Z,38.96
2022-10-28T12:47:32.194Z,39.38
2022-10-28T12:50:07.915Z,39.61
2022-10-28T12:52:56.115Z,39.68
2022-10-28T12:55:29.252Z,39.69
2022-10-28T12:58:05.743Z,39.74
2022-10-28T13:00:37.772Z,40.04
2022-10-28T13:03:10.198Z,39.17
2022-10-28T13:05:39.860Z,39.28
2022-10-28T13:08:38.660Z,40.02
2022-10-28T13:11:20.466Z,39.62
2022-10-28T13:14:09.836Z,40.16
2022-10-28T13:17:01.315Z,40.32
2022-10-28T13:19:56.772Z,42.44
2022-10-28T13:22:41.963Z,40.98
2022-10-28T13:25:24.808Z,40.62
2022-10-28T13:27:59.479Z,40.88
2022-10-28T13:30:27.326Z,41.12
2022-10-28T13:33:08.811Z,40.62
2022-10-28T13:35:36.997Z,41.03
2022-10-28T13:38:11.495Z,40.29
2022-10-28T13:40:38.064Z,40.46
2022-10-28T13:43:04.731Z,40.89
2022-10-28T13:45:49.027Z,40.78
2022-10-28T13:48:43.718Z,40.78
2022-10-28T13:51:10.412Z,41.00
2022-10-28T13:53:38.547Z,40.82
2022-10-28T13:56:19.854Z,41.10
2022-10-28T13:58:56.471Z,42.08
2022-10-28T14:01:37.864Z,42.22
2022-10-28T14:04:06.011Z,41.92
2022-10-28T14:06:35.122Z,42.10
2022-10-28T14:09:02.126Z,42.60
2022-10-28T14:11:32.604Z,41.91
2022-10-28T14:14:03.803Z,42.97
2022-10-28T14:16:39.012Z,42.94
2022-10-28T14:19:11.282Z,43.91
2022-10-28T14:21:43.768Z,43.26
2022-10-28T14:24:12.323Z,43.16
2022-10-28T14:27:03.750Z,43.52
2022-10-28T14:29:30.562Z,43.31
2022-10-28T14:31:57.319Z,43.51
2022-10-28T14:34:36.639Z,43.87
2022-10-28T14:37:25.804Z,44.02
2022-10-28T14:40:30.406Z,43.59
2022-10-28T14:43:01.575Z,44.13
2022-10-28T14:45:31.191Z,43.75
2022-10-28T14:48:18.709Z,44.24
2022-10-28T14:50:49.661Z,44.56
2022-10-28T14:53:24.439Z,44.31
2022-10-28T14:55:59.510Z,44.44
2022-10-28T14:58:30.474Z,45.46
2022-10-28T15:01:18.705Z,44.42
2022-10-28T15:03:54.017Z,45.25
2022-10-28T15:06:39.356Z,45.19
2022-10-28T15:09:25.458Z,45.16
2022-10-28T15:12:06.317Z,46.63
2022-10-28T15:14:39.781Z,47.97
2022-10-28T15:17:16.498Z,48.02
2022-10-28T15:19:44.952Z,48.95
2022-10-28T15:22:17.610Z,50.36
2022-10-28T15:24:56.942Z,50.54
2022-10-28T15:27:25.028Z,50.97
2022-10-28T15:29:52.389Z,51.79
2022-10-28T15:32:21.968Z,51.55
2022-10-28T15:34:49.169Z,52.68
2022-10-28T15:37:21.491Z,52.79
2022-10-28T15:39:53.450Z,52.51
2022-10-28T15:42:50.061Z,53.03
2022-10-28T15:45:19.901Z,53.04
2022-10-28T15:47:47.340Z,53.93
2022-10-28T15:50:16.978Z,53.60
2022-10-28T15:52:48.357Z,53.22
2022-10-28T15:55:41.045Z,53.45
2022-10-28T15:58:19.235Z,53.83
2022-10-28T16:00:54.821Z,53.69
2022-10-28T16:03:25.608Z,53.56
2022-10-28T16:05:54.310Z,53.78
2022-10-28T16:08:24.460Z,54.22
2022-10-28T16:11:00.865Z,53.64
2022-10-28T16:13:31.491Z,53.59
2022-10-28T16:16:08.384Z,53.41
2022-10-28T16:18:44.752Z,54.20
2022-10-28T16:21:23.645Z,54.09
2022-10-28T16:23:58.863Z,54.19
2022-10-28T16:26:26.687Z,54.82
2022-10-28T16:28:53.366Z,54.85
2022-10-28T16:31:22.567Z,55.02
2022-10-28T16:33:49.487Z,55.60
2022-10-28T16:36:16.151Z,55.79
2022-10-28T16:38:42.899Z,56.07
2022-10-28T16:41:18.598Z,55.63
2022-10-28T16:43:46.106Z,55.45
2022-10-28T16:46:13.997Z,55.81
2022-10-28T16:48:41.357Z,56.15
2022-10-28T16:51:25.816Z,56.23
2022-10-28T16:53:52.503Z,55.89
2022-10-28T16:56:19.130Z,56.58
2022-10-28T16:58:46.295Z,55.96
2022-10-28T17:01:19.564Z,55.91
2022-10-28T17:03:46.789Z,55.08
2022-10-28T17:06:13.366Z,54.42
2022-10-28T17:09:01.718Z,54.55
2022-10-28T17:11:26.666Z,54.48
2022-10-28T17:13:53.324Z,53.85
2022-10-28T17:16:19.963Z,53.81
2022-10-28T17:18:49.507Z,54.73
2022-10-28T17:21:16.173Z,54.66
2022-10-28T17:23:42.764Z,56.04
2022-10-28T17:26:09.679Z,55.68
2022-10-28T17:28:36.300Z,56.49
2022-10-28T17:31:07.802Z,56.42
2022-10-28T17:33:34.985Z,56.13
2022-10-28T17:36:08.751Z,56.52
2022-10-28T17:38:35.909Z,56.27
2022-10-28T17:41:02.657Z,56.16
2022-10-28T17:43:29.297Z,56.57
2022-10-28T17:46:06.699Z,57.04
2022-10-28T17:48:33.982Z,56.54
2022-10-28T17:51:00.465Z,54.54
2022-10-28T17:53:27.335Z,54.37
2022-10-28T17:56:05.869Z,54.49
2022-10-28T17:58:33.256Z,54.57
2022-10-28T18:01:02.167Z,55.45
2022-10-28T18:03:32.728Z,55.74
2022-10-28T18:06:03.588Z,55.13
2022-10-28T18:08:37.886Z,53.31
2022-10-28T18:11:05.865Z,52.71
2022-10-28T18:13:35.530Z,52.42
2022-10-28T18:16:13.568Z,50.87
2022-10-28T18:18:42.546Z,50.53
2022-10-28T18:21:10.927Z,49.95
2022-10-28T18:23:38.357Z,49.53
2022-10-28T18:26:08.125Z,49.63
2022-10-28T18:28:36.163Z,48.99
2022-10-28T18:31:03.561Z,48.78
2022-10-28T18:33:30.474Z,48.51
2022-10-28T18:36:01.054Z,48.29
2022-10-28T18:38:27.740Z,48.66
2022-10-28T18:40:54.607Z,47.49
2022-10-28T18:43:22.901Z,47.99
2022-10-28T18:45:49.952Z,47.79
2022-10-28T18:48:17.380Z,47.91
2022-10-28T18:50:45.726Z,47.84
2022-10-28T18:53:15.135Z,47.42
2022-10-28T18:55:41.705Z,47.82
2022-10-28T18:58:11.675Z,47.41
2022-10-28T19:00:40.158Z,47.64
2022-10-28T19:03:07.160Z,47.52
2022-10-28T19:05:33.804Z,47.59
2022-10-28T19:08:00.400Z,47.72
2022-10-28T19:10:29.085Z,47.84
2022-10-28T19:12:55.646Z,47.26
2022-10-28T19:15:22.379Z,47.62
2022-10-28T19:17:48.974Z,47.84
2022-10-28T19:20:15.714Z,48.26
2022-10-28T19:22:42.448Z,47.98
2022-10-28T19:25:09.341Z,48.03
2022-10-28T19:27:36.029Z,47.26
2022-10-28T19:30:06.516Z,47.70
2022-10-28T19:32:38.283Z,47.68
2022-10-28T19:35:05.347Z,47.80
2022-10-28T19:37:31.965Z,47.74
2022-10-28T19:39:58.515Z,47.71
2022-10-28T19:42:25.775Z,47.87
2022-10-28T19:44:52.257Z,47.63
2022-10-28T19:47:18.891Z,48.05
2022-10-28T19:49:45.478Z,47.89
2022-10-28T19:52:12.076Z,48.49
2022-10-28T19:54:38.649Z,48.74
2022-10-28T19:57:05.339Z,48.29
2022-10-28T19:59:31.935Z,48.91
2022-10-28T20:01:58.661Z,48.72
2022-10-28T20:04:25.432Z,49.05
2022-10-28T20:06:52.109Z,49.27
2022-10-28T20:09:18.668Z,49.60
2022-10-28T20:11:45.336Z,49.38
2022-10-28T20:14:12.761Z,49.46
2022-10-28T20:16:42.650Z,49.92
2022-10-28T20:19:10.172Z,50.08
2022-10-28T20:21:38.139Z,50.20
2022-10-28T20:24:06.404Z,50.40
2022-10-28T20:26:35.605Z,50.64
2022-10-28T20:29:03.021Z,50.02
2022-10-28T20:31:31.538Z,50.68
2022-10-28T20:34:01.520Z,50.80
2022-10-28T20:36:43.239Z,50.11
2022-10-28T20:39:19.329Z,50.34
2022-10-28T20:41:47.839Z,50.20
2022-10-28T20:44:14.665Z,50.29
2022-10-28T20:46:41.811Z,50.61
2022-10-28T20:49:13.144Z,50.04
2022-10-28T20:51:40.512Z,50.65
2022-10-28T20:54:07.066Z,49.97
2022-10-28T20:56:37.297Z,50.90
2022-10-28T20:59:04.206Z,51.14
2022-10-28T21:01:33.791Z,52.00
2022-10-28T21:04:04.393Z,50.95
2022-10-28T21:06:31.717Z,51.53
2022-10-28T21:08:58.690Z,50.54
2022-10-28T21:11:27.115Z,51.17
2022-10-28T21:13:56.087Z,51.61
2022-10-28T21:16:23.473Z,51.64
2022-10-28T21:18:50.820Z,52.09
2022-10-28T21:21:19.223Z,51.73
2022-10-28T21:23:45.938Z,51.50
2022-10-28T21:26:13.424Z,51.55
2022-10-28T21:28:42.921Z,51.82
2022-10-28T21:31:12.043Z,51.86
2022-10-28T21:33:39.929Z,52.25
2022-10-28T21:36:16.526Z,53.85
2022-10-28T21:38:43.684Z,54.07
2022-10-28T21:41:10.877Z,54.15
2022-10-28T21:43:38.395Z,54.08
2022-10-28T21:46:06.008Z,54.98
2022-10-28T21:48:34.569Z,55.48
2022-10-28T21:51:03.014Z,55.35
2022-10-28T21:53:33.347Z,55.79
2022-10-28T21:56:16.670Z,55.49
2022-10-28T21:58:44.941Z,56.13
2022-10-28T22:01:14.734Z,56.30
2022-10-28T22:03:41.554Z,56.21
2022-10-28T22:06:08.247Z,56.66
2022-10-28T22:08:35.004Z,56.85
2022-10-28T22:11:03.809Z,56.86
2022-10-28T22:13:30.669Z,56.76
2022-10-28T22:16:02.509Z,57.95
2022-10-28T22:18:30.296Z,57.68
2022-10-28T22:20:57.137Z,58.22
2022-10-28T22:23:23.926Z,58.52
2022-10-28T22:25:50.485Z,58.65
2022-10-28T22:28:17.141Z,59.20
2022-10-28T22:30:43.763Z,59.47
2022-10-28T22:33:10.362Z,59.65
2022-10-28T22:35:36.914Z,59.77
2022-10-28T22:38:03.605Z,59.88
2022-10-28T22:40:30.167Z,60.24
2022-10-28T22:42:56.896Z,59.76
2022-10-28T22:45:23.629Z,59.89
2022-10-28T22:47:51.129Z,59.97
2022-10-28T22:50:17.753Z,59.54
2022-10-28T22:52:44.395Z,59.75
2022-10-28T22:55:11.089Z,59.77
2022-10-28T22:57:37.767Z,60.30
2022-10-28T23:00:04.893Z,60.67
2022-10-28T23:02:31.579Z,60.35
2022-10-28T23:04:58.261Z,61.03
2022-10-28T23:07:24.934Z,60.89
2022-10-28T23:09:51.506Z,61.15
2022-10-28T23:12:18.095Z,61.11
2022-10-28T23:14:44.710Z,61.81
2022-10-28T23:17:11.471Z,61.35
2022-10-28T23:19:38.057Z,61.90
2022-10-28T23:22:04.714Z,62.24
2022-10-28T23:24:31.348Z,61.98
2022-10-28T23:29:29.540Z,61.92
2022-10-28T23:31:56.193Z,62.67
2022-10-28T23:34:22.873Z,62.43
2022-10-28T23:36:54.050Z,62.91
2022-10-28T23:39:21.473Z,63.24
2022-10-28T23:41:48.115Z,62.47
2022-10-28T23:44:15.386Z,63.32
2022-10-28T23:46:42.173Z,63.14
2022-10-28T23:49:08.851Z,63.33
2022-10-28T23:51:35.434Z,62.97
2022-10-28T23:54:02.490Z,63.46
2022-10-28T23:56:29.285Z,64.23
2022-10-28T23:58:56.068Z,63.44
